sensor_id;sensor_type;location;lat;lon;timestamp;P1;durP1;ratioP1;P2;durP2;ratioP2
64938;SDS011;51453;47.738;7.420;2024-03-23T00:55:27;10.10;;;4.85;;
64938;SDS011;51453;47.738;7.420;2024-03-23T00:57:53;8.40;;;5.03;;
64938;SDS011;51453;47.738;7.420;2024-03-23T01:00:18;10.13;;;5.20;;
64938;SDS011;51453;47.738;7.420;2024-03-23T01:02:44;12.50;;;5.25;;
64938;SDS011;51453;47.738;7.420;2024-03-23T01:05:10;6.95;;;4.47;;
64938;SDS011;51453;47.738;7.420;2024-03-23T01:07:35;8.77;;;4.63;;
64938;SDS011;51453;47.738;7.420;2024-03-23T01:10:01;10.90;;;4.50;;
64938;SDS011;51453;47.738;7.420;2024-03-23T01:12:27;8.43;;;4.35;;
64938;SDS011;51453;47.738;7.420;2024-03-23T01:14:52;7.95;;;4.07;;
64938;SDS011;51453;47.738;7.420;2024-03-23T01:17:18;6.25;;;4.38;;
64938;SDS011;51453;47.738;7.420;2024-03-23T01:19:43;6.80;;;4.10;;
64938;SDS011;51453;47.738;7.420;2024-03-23T01:22:09;4.50;;;3.65;;
64938;SDS011;51453;47.738;7.420;2024-03-23T01:24:35;5.38;;;3.75;;
64938;SDS011;51453;47.738;7.420;2024-03-23T01:27:01;8.85;;;3.85;;
64938;SDS011;51453;47.738;7.420;2024-03-23T01:29:26;6.18;;;3.90;;
64938;SDS011;51453;47.738;7.420;2024-03-23T01:31:52;8.32;;;4.38;;
64938;SDS011;51453;47.738;7.420;2024-03-23T01:34:18;6.00;;;3.67;;
64938;SDS011;51453;47.738;7.420;2024-03-23T01:36:45;6.15;;;4.20;;
64938;SDS011;51453;47.738;7.420;2024-03-23T01:39:11;7.63;;;4.30;;
64938;SDS011;51453;47.738;7.420;2024-03-23T01:41:37;10.90;;;5.20;;
64938;SDS011;51453;47.738;7.420;2024-03-23T01:44:07;7.57;;;4.15;;
64938;SDS011;51453;47.738;7.420;2024-03-23T01:46:33;6.95;;;4.30;;
64938;SDS011;51453;47.738;7.420;2024-03-23T01:49:00;6.95;;;4.22;;
64938;SDS011;51453;47.738;7.420;2024-03-23T01:51:26;8.35;;;4.35;;
64938;SDS011;51453;47.738;7.420;2024-03-23T01:53:53;5.82;;;4.45;;
64938;SDS011;51453;47.738;7.420;2024-03-23T01:56:20;7.15;;;4.57;;
64938;SDS011;51453;47.738;7.420;2024-03-23T01:58:46;7.25;;;4.85;;
64938;SDS011;51453;47.738;7.420;2024-03-23T02:01:11;7.72;;;4.28;;
64938;SDS011;51453;47.738;7.420;2024-03-23T02:03:37;5.95;;;4.20;;
64938;SDS011;51453;47.738;7.420;2024-03-23T02:06:02;9.57;;;4.57;;
64938;SDS011;51453;47.738;7.420;2024-03-23T02:08:29;8.57;;;4.60;;
64938;SDS011;51453;47.738;7.420;2024-03-23T02:10:56;7.10;;;4.30;;
64938;SDS011;51453;47.738;7.420;2024-03-23T02:13:23;6.32;;;4.18;;
64938;SDS011;51453;47.738;7.420;2024-03-23T02:15:49;8.50;;;4.40;;
64938;SDS011;51453;47.738;7.420;2024-03-23T02:18:15;5.65;;;4.15;;
64938;SDS011;51453;47.738;7.420;2024-03-23T02:20:40;8.80;;;4.70;;
64938;SDS011;51453;47.738;7.420;2024-03-23T02:23:12;9.25;;;4.88;;
64938;SDS011;51453;47.738;7.420;2024-03-23T02:25:43;7.13;;;4.78;;
64938;SDS011;51453;47.738;7.420;2024-03-23T02:28:09;10.52;;;5.40;;
64938;SDS011;51453;47.738;7.420;2024-03-23T02:30:34;10.30;;;4.75;;
64938;SDS011;51453;47.738;7.420;2024-03-23T02:33:00;10.70;;;4.55;;
64938;SDS011;51453;47.738;7.420;2024-03-23T02:35:26;6.40;;;4.43;;
64938;SDS011;51453;47.738;7.420;2024-03-23T02:37:52;7.80;;;4.40;;
64938;SDS011;51453;47.738;7.420;2024-03-23T02:40:18;8.93;;;4.63;;
64938;SDS011;51453;47.738;7.420;2024-03-23T02:42:44;7.15;;;4.40;;
64938;SDS011;51453;47.738;7.420;2024-03-23T02:45:10;7.32;;;3.92;;
64938;SDS011;51453;47.738;7.420;2024-03-23T02:47:36;5.90;;;3.90;;
64938;SDS011;51453;47.738;7.420;2024-03-23T02:50:01;5.25;;;3.70;;
64938;SDS011;51453;47.738;7.420;2024-03-23T02:52:27;7.00;;;4.03;;
64938;SDS011;51453;47.738;7.420;2024-03-23T02:54:53;5.90;;;3.85;;
64938;SDS011;51453;47.738;7.420;2024-03-23T02:57:19;7.72;;;3.90;;
64938;SDS011;51453;47.738;7.420;2024-03-23T02:59:44;7.55;;;3.70;;
64938;SDS011;51453;47.738;7.420;2024-03-23T03:02:11;9.77;;;3.25;;
64938;SDS011;51453;47.738;7.420;2024-03-23T03:04:38;6.30;;;3.53;;
64938;SDS011;51453;47.738;7.420;2024-03-23T03:07:03;5.95;;;3.05;;
64938;SDS011;51453;47.738;7.420;2024-03-23T03:09:29;4.75;;;3.03;;
64938;SDS011;51453;47.738;7.420;2024-03-23T03:11:55;4.57;;;2.38;;
64938;SDS011;51453;47.738;7.420;2024-03-23T03:14:22;4.75;;;2.63;;
64938;SDS011;51453;47.738;7.420;2024-03-23T03:16:47;3.40;;;2.30;;
64938;SDS011;51453;47.738;7.420;2024-03-23T03:19:13;7.28;;;2.70;;
64938;SDS011;51453;47.738;7.420;2024-03-23T03:21:38;7.05;;;2.47;;
64938;SDS011;51453;47.738;7.420;2024-03-23T03:24:05;9.95;;;2.78;;
64938;SDS011;51453;47.738;7.420;2024-03-23T03:26:31;6.40;;;2.30;;
64938;SDS011;51453;47.738;7.420;2024-03-23T03:28:57;3.67;;;2.38;;
64938;SDS011;51453;47.738;7.420;2024-03-23T03:31:23;3.50;;;2.17;;
64938;SDS011;51453;47.738;7.420;2024-03-23T03:33:49;8.75;;;2.47;;
64938;SDS011;51453;47.738;7.420;2024-03-23T03:36:16;4.10;;;2.30;;
64938;SDS011;51453;47.738;7.420;2024-03-23T03:38:41;4.20;;;2.25;;
64938;SDS011;51453;47.738;7.420;2024-03-23T03:41:07;4.53;;;2.38;;
64938;SDS011;51453;47.738;7.420;2024-03-23T03:43:32;5.63;;;2.47;;
64938;SDS011;51453;47.738;7.420;2024-03-23T03:45:58;4.78;;;2.40;;
64938;SDS011;51453;47.738;7.420;2024-03-23T03:48:25;4.50;;;2.42;;
64938;SDS011;51453;47.738;7.420;2024-03-23T03:50:51;7.35;;;2.53;;
64938;SDS011;51453;47.738;7.420;2024-03-23T03:53:18;4.32;;;2.40;;
64938;SDS011;51453;47.738;7.420;2024-03-23T03:55:44;5.25;;;2.45;;
64938;SDS011;51453;47.738;7.420;2024-03-23T03:58:09;3.42;;;2.40;;
64938;SDS011;51453;47.738;7.420;2024-03-23T04:00:35;5.05;;;2.75;;
64938;SDS011;51453;47.738;7.420;2024-03-23T04:03:01;5.60;;;2.90;;
64938;SDS011;51453;47.738;7.420;2024-03-23T04:05:27;3.38;;;2.53;;
64938;SDS011;51453;47.738;7.420;2024-03-23T04:07:53;4.97;;;2.85;;
64938;SDS011;51453;47.738;7.420;2024-03-23T04:10:19;4.28;;;3.03;;
64938;SDS011;51453;47.738;7.420;2024-03-23T04:12:45;8.32;;;3.70;;
64938;SDS011;51453;47.738;7.420;2024-03-23T04:15:11;5.15;;;3.22;;
64938;SDS011;51453;47.738;7.420;2024-03-23T04:17:36;5.60;;;3.25;;
64938;SDS011;51453;47.738;7.420;2024-03-23T04:20:02;5.80;;;3.50;;
64938;SDS011;51453;47.738;7.420;2024-03-23T04:22:30;6.25;;;3.78;;
64938;SDS011;51453;47.738;7.420;2024-03-23T04:24:56;4.85;;;3.85;;
64938;SDS011;51453;47.738;7.420;2024-03-23T04:27:22;6.00;;;4.57;;
64938;SDS011;51453;47.738;7.420;2024-03-23T04:29:49;9.85;;;4.70;;
64938;SDS011;51453;47.738;7.420;2024-03-23T04:32:18;10.60;;;5.10;;
64938;SDS011;51453;47.738;7.420;2024-03-23T04:34:44;6.43;;;5.43;;
64938;SDS011;51453;47.738;7.420;2024-03-23T04:37:10;8.90;;;5.72;;
64938;SDS011;51453;47.738;7.420;2024-03-23T04:39:36;11.50;;;6.55;;
64938;SDS011;51453;47.738;7.420;2024-03-23T04:42:02;10.18;;;5.95;;
64938;SDS011;51453;47.738;7.420;2024-03-23T04:44:28;9.77;;;6.07;;
64938;SDS011;51453;47.738;7.420;2024-03-23T04:46:54;12.25;;;6.15;;
64938;SDS011;51453;47.738;7.420;2024-03-23T04:49:19;10.70;;;6.10;;
64938;SDS011;51453;47.738;7.420;2024-03-23T04:51:45;9.52;;;6.03;;
64938;SDS011;51453;47.738;7.420;2024-03-23T04:54:11;9.52;;;6.28;;
64938;SDS011;51453;47.738;7.420;2024-03-23T04:56:37;12.20;;;6.78;;
64938;SDS011;51453;47.738;7.420;2024-03-23T04:59:03;9.68;;;6.43;;
64938;SDS011;51453;47.738;7.420;2024-03-23T05:01:30;11.13;;;6.30;;
64938;SDS011;51453;47.738;7.420;2024-03-23T05:03:56;9.38;;;6.28;;
64938;SDS011;51453;47.738;7.420;2024-03-23T05:06:22;7.50;;;5.97;;
64938;SDS011;51453;47.738;7.420;2024-03-23T05:08:48;9.00;;;6.38;;
64938;SDS011;51453;47.738;7.420;2024-03-23T05:11:14;10.63;;;6.05;;
64938;SDS011;51453;47.738;7.420;2024-03-23T05:13:40;12.43;;;6.15;;
64938;SDS011;51453;47.738;7.420;2024-03-23T05:16:06;10.18;;;5.88;;
64938;SDS011;51453;47.738;7.420;2024-03-23T05:18:33;9.50;;;6.10;;
64938;SDS011;51453;47.738;7.420;2024-03-23T05:20:59;11.23;;;6.03;;
64938;SDS011;51453;47.738;7.420;2024-03-23T05:23:25;10.48;;;6.18;;
64938;SDS011;51453;47.738;7.420;2024-03-23T05:25:51;8.48;;;6.88;;
64938;SDS011;51453;47.738;7.420;2024-03-23T05:28:18;9.68;;;6.32;;
64938;SDS011;51453;47.738;7.420;2024-03-23T05:30:49;10.82;;;6.90;;
64938;SDS011;51453;47.738;7.420;2024-03-23T05:33:19;10.13;;;6.97;;
64938;SDS011;51453;47.738;7.420;2024-03-23T05:35:45;9.82;;;6.82;;
64938;SDS011;51453;47.738;7.420;2024-03-23T05:38:11;13.57;;;7.10;;
64938;SDS011;51453;47.738;7.420;2024-03-23T05:40:36;12.77;;;7.30;;
64938;SDS011;51453;47.738;7.420;2024-03-23T05:43:05;9.90;;;6.78;;
64938;SDS011;51453;47.738;7.420;2024-03-23T05:45:31;9.68;;;6.65;;
64938;SDS011;51453;47.738;7.420;2024-03-23T05:47:56;8.98;;;6.28;;
64938;SDS011;51453;47.738;7.420;2024-03-23T05:50:22;10.10;;;7.07;;
64938;SDS011;51453;47.738;7.420;2024-03-23T05:52:48;9.38;;;6.88;;
64938;SDS011;51453;47.738;7.420;2024-03-23T05:55:15;9.15;;;6.50;;
64938;SDS011;51453;47.738;7.420;2024-03-23T05:57:40;9.70;;;6.68;;
64938;SDS011;51453;47.738;7.420;2024-03-23T06:00:06;12.85;;;6.85;;
64938;SDS011;51453;47.738;7.420;2024-03-23T06:02:40;10.90;;;6.60;;
64938;SDS011;51453;47.738;7.420;2024-03-23T06:05:12;9.30;;;6.85;;
64938;SDS011;51453;47.738;7.420;2024-03-23T06:07:37;9.30;;;6.80;;
64938;SDS011;51453;47.738;7.420;2024-03-23T06:10:04;8.85;;;6.65;;
64938;SDS011;51453;47.738;7.420;2024-03-23T06:12:30;8.05;;;6.35;;
64938;SDS011;51453;47.738;7.420;2024-03-23T06:14:56;8.10;;;6.43;;
64938;SDS011;51453;47.738;7.420;2024-03-23T06:17:22;9.73;;;6.38;;
64938;SDS011;51453;47.738;7.420;2024-03-23T06:19:48;9.13;;;6.10;;
64938;SDS011;51453;47.738;7.420;2024-03-23T06:22:14;8.20;;;5.72;;
64938;SDS011;51453;47.738;7.420;2024-03-23T06:24:40;7.47;;;5.28;;
64938;SDS011;51453;47.738;7.420;2024-03-23T06:27:05;5.18;;;2.80;;
64938;SDS011;51453;47.738;7.420;2024-03-23T06:29:31;2.40;;;2.20;;
64938;SDS011;51453;47.738;7.420;2024-03-23T06:31:57;1.92;;;1.70;;
64938;SDS011;51453;47.738;7.420;2024-03-23T06:34:23;1.67;;;1.33;;
64938;SDS011;51453;47.738;7.420;2024-03-23T06:36:49;1.92;;;1.13;;
64938;SDS011;51453;47.738;7.420;2024-03-23T06:39:15;3.85;;;1.10;;
64938;SDS011;51453;47.738;7.420;2024-03-23T06:41:53;1.63;;;1.23;;
64938;SDS011;51453;47.738;7.420;2024-03-23T06:44:20;1.15;;;0.70;;
64938;SDS011;51453;47.738;7.420;2024-03-23T06:46:46;0.35;;;0.30;;
64938;SDS011;51453;47.738;7.420;2024-03-23T06:49:13;1.17;;;0.30;;
64938;SDS011;51453;47.738;7.420;2024-03-23T06:51:40;0.20;;;0.20;;
64938;SDS011;51453;47.738;7.420;2024-03-23T06:54:05;0.70;;;0.10;;
64938;SDS011;51453;47.738;7.420;2024-03-23T06:56:31;0.30;;;0.10;;
64938;SDS011;51453;47.738;7.420;2024-03-23T06:58:57;0.10;;;0.10;;
64938;SDS011;51453;47.738;7.420;2024-03-23T07:01:24;0.10;;;0.10;;
64938;SDS011;51453;47.738;7.420;2024-03-23T07:03:49;3.05;;;0.10;;
64938;SDS011;51453;47.738;7.420;2024-03-23T07:06:15;0.10;;;0.10;;
64938;SDS011;51453;47.738;7.420;2024-03-23T07:08:41;0.00;;;0.00;;
64938;SDS011;51453;47.738;7.420;2024-03-23T07:11:06;0.17;;;0.00;;
64938;SDS011;51453;47.738;7.420;2024-03-23T07:13:32;0.15;;;0.10;;
64938;SDS011;51453;47.738;7.420;2024-03-23T07:15:57;1.08;;;0.10;;
64938;SDS011;51453;47.738;7.420;2024-03-23T07:18:25;0.75;;;0.20;;
64938;SDS011;51453;47.738;7.420;2024-03-23T07:20:54;1.08;;;0.10;;
64938;SDS011;51453;47.738;7.420;2024-03-23T07:23:24;2.60;;;0.20;;
64938;SDS011;51453;47.738;7.420;2024-03-23T07:25:56;0.57;;;0.30;;
64938;SDS011;51453;47.738;7.420;2024-03-23T07:28:22;0.47;;;0.30;;
64938;SDS011;51453;47.738;7.420;2024-03-23T07:30:47;1.05;;;0.28;;
64938;SDS011;51453;47.738;7.420;2024-03-23T07:33:13;1.35;;;0.32;;
64938;SDS011;51453;47.738;7.420;2024-03-23T07:35:39;4.57;;;0.40;;
64938;SDS011;51453;47.738;7.420;2024-03-23T07:38:04;3.17;;;0.50;;
64938;SDS011;51453;47.738;7.420;2024-03-23T07:40:30;2.92;;;0.63;;
64938;SDS011;51453;47.738;7.420;2024-03-23T07:42:56;3.85;;;0.65;;
64938;SDS011;51453;47.738;7.420;2024-03-23T07:45:21;2.85;;;0.55;;
64938;SDS011;51453;47.738;7.420;2024-03-23T07:47:47;1.25;;;0.55;;
64938;SDS011;51453;47.738;7.420;2024-03-23T07:50:13;1.70;;;0.60;;
64938;SDS011;51453;47.738;7.420;2024-03-23T07:52:38;2.13;;;0.70;;
64938;SDS011;51453;47.738;7.420;2024-03-23T07:55:04;4.20;;;0.88;;
64938;SDS011;51453;47.738;7.420;2024-03-23T07:57:30;4.90;;;0.95;;
64938;SDS011;51453;47.738;7.420;2024-03-23T07:59:56;2.35;;;0.80;;
64938;SDS011;51453;47.738;7.420;2024-03-23T08:02:21;3.92;;;1.17;;
64938;SDS011;51453;47.738;7.420;2024-03-23T08:04:47;4.18;;;0.90;;
64938;SDS011;51453;47.738;7.420;2024-03-23T08:07:13;7.80;;;1.13;;
64938;SDS011;51453;47.738;7.420;2024-03-23T08:09:39;5.72;;;1.27;;
64938;SDS011;51453;47.738;7.420;2024-03-23T08:12:04;3.88;;;0.93;;
64938;SDS011;51453;47.738;7.420;2024-03-23T08:14:30;3.88;;;1.00;;
64938;SDS011;51453;47.738;7.420;2024-03-23T08:16:55;4.50;;;1.17;;
64938;SDS011;51453;47.738;7.420;2024-03-23T08:19:21;4.40;;;1.55;;
64938;SDS011;51453;47.738;7.420;2024-03-23T08:21:47;11.07;;;1.90;;
64938;SDS011;51453;47.738;7.420;2024-03-23T08:24:12;9.43;;;1.60;;
64938;SDS011;51453;47.738;7.420;2024-03-23T08:26:38;8.35;;;1.65;;
64938;SDS011;51453;47.738;7.420;2024-03-23T08:29:04;5.47;;;1.65;;
64938;SDS011;51453;47.738;7.420;2024-03-23T08:31:30;5.15;;;1.60;;
64938;SDS011;51453;47.738;7.420;2024-03-23T08:33:56;6.22;;;1.40;;
64938;SDS011;51453;47.738;7.420;2024-03-23T08:36:21;14.60;;;3.45;;
64938;SDS011;51453;47.738;7.420;2024-03-23T08:38:47;8.15;;;2.08;;
64938;SDS011;51453;47.738;7.420;2024-03-23T08:41:15;8.77;;;2.22;;
64938;SDS011;51453;47.738;7.420;2024-03-23T08:43:41;5.95;;;1.73;;
64938;SDS011;51453;47.738;7.420;2024-03-23T08:46:13;8.60;;;1.90;;
64938;SDS011;51453;47.738;7.420;2024-03-23T08:48:41;5.95;;;1.70;;
64938;SDS011;51453;47.738;7.420;2024-03-23T08:51:09;9.27;;;2.20;;
64938;SDS011;51453;47.738;7.420;2024-03-23T08:53:35;8.35;;;2.00;;
64938;SDS011;51453;47.738;7.420;2024-03-23T08:56:01;7.90;;;2.00;;
64938;SDS011;51453;47.738;7.420;2024-03-23T08:58:28;6.10;;;1.70;;
64938;SDS011;51453;47.738;7.420;2024-03-23T09:00:55;7.40;;;1.77;;
64938;SDS011;51453;47.738;7.420;2024-03-23T09:03:25;6.63;;;2.00;;
64938;SDS011;51453;47.738;7.420;2024-03-23T09:05:51;8.70;;;2.15;;
64938;SDS011;51453;47.738;7.420;2024-03-23T09:08:17;9.80;;;1.85;;
64938;SDS011;51453;47.738;7.420;2024-03-23T09:10:46;7.45;;;1.73;;
64938;SDS011;51453;47.738;7.420;2024-03-23T09:13:12;11.43;;;2.42;;
64938;SDS011;51453;47.738;7.420;2024-03-23T09:15:45;8.35;;;2.00;;
64938;SDS011;51453;47.738;7.420;2024-03-23T09:18:12;7.47;;;2.00;;
64938;SDS011;51453;47.738;7.420;2024-03-23T09:20:38;8.00;;;1.98;;
64938;SDS011;51453;47.738;7.420;2024-03-23T09:23:04;8.98;;;2.40;;
64938;SDS011;51453;47.738;7.420;2024-03-23T09:25:29;9.23;;;2.30;;
64938;SDS011;51453;47.738;7.420;2024-03-23T09:27:55;9.07;;;1.70;;
64938;SDS011;51453;47.738;7.420;2024-03-23T09:30:20;9.18;;;1.88;;
64938;SDS011;51453;47.738;7.420;2024-03-23T09:32:46;7.43;;;1.80;;
64938;SDS011;51453;47.738;7.420;2024-03-23T09:35:12;7.90;;;1.80;;
64938;SDS011;51453;47.738;7.420;2024-03-23T09:37:41;6.55;;;1.52;;
64938;SDS011;51453;47.738;7.420;2024-03-23T09:40:10;9.68;;;1.98;;
64938;SDS011;51453;47.738;7.420;2024-03-23T09:42:38;10.80;;;1.80;;
64938;SDS011;51453;47.738;7.420;2024-03-23T09:45:06;7.53;;;1.77;;
64938;SDS011;51453;47.738;7.420;2024-03-23T09:50:02;7.78;;;1.73;;
64938;SDS011;51453;47.738;7.420;2024-03-23T09:52:29;8.68;;;1.73;;
64938;SDS011;51453;47.738;7.420;2024-03-23T09:54:56;10.05;;;2.05;;
64938;SDS011;51453;47.738;7.420;2024-03-23T09:57:21;10.88;;;2.20;;
64938;SDS011;51453;47.738;7.420;2024-03-23T09:59:47;12.93;;;2.25;;
64938;SDS011;51453;47.738;7.420;2024-03-23T10:02:13;12.90;;;2.35;;
64938;SDS011;51453;47.738;7.420;2024-03-23T10:04:42;8.00;;;1.73;;
64938;SDS011;51453;47.738;7.420;2024-03-23T10:07:41;11.70;;;2.42;;
64938;SDS011;51453;47.738;7.420;2024-03-23T10:10:02;12.23;;;2.60;;
64938;SDS011;51453;47.738;7.420;2024-03-23T10:12:35;7.25;;;1.60;;
64938;SDS011;51453;47.738;7.420;2024-03-23T10:15:23;9.23;;;2.10;;
64938;SDS011;51453;47.738;7.420;2024-03-23T10:17:50;10.27;;;2.33;;
64938;SDS011;51453;47.738;7.420;2024-03-23T10:20:20;12.57;;;2.28;;
64938;SDS011;51453;47.738;7.420;2024-03-23T10:22:47;8.75;;;2.08;;
64938;SDS011;51453;47.738;7.420;2024-03-23T10:25:14;12.82;;;1.90;;
64938;SDS011;51453;47.738;7.420;2024-03-23T10:27:40;12.35;;;1.80;;
64938;SDS011;51453;47.738;7.420;2024-03-23T10:30:09;8.32;;;2.03;;
64938;SDS011;51453;47.738;7.420;2024-03-23T10:32:41;10.35;;;1.92;;
64938;SDS011;51453;47.738;7.420;2024-03-23T10:35:40;7.45;;;1.48;;
64938;SDS011;51453;47.738;7.420;2024-03-23T10:38:00;4.95;;;1.63;;
64938;SDS011;51453;47.738;7.420;2024-03-23T10:40:27;1.80;;;0.80;;
64938;SDS011;51453;47.738;7.420;2024-03-23T10:42:55;4.10;;;1.00;;
64938;SDS011;51453;47.738;7.420;2024-03-23T10:45:23;5.07;;;1.08;;
64938;SDS011;51453;47.738;7.420;2024-03-23T10:47:48;7.28;;;1.40;;
64938;SDS011;51453;47.738;7.420;2024-03-23T10:50:14;2.90;;;0.90;;
64938;SDS011;51453;47.738;7.420;2024-03-23T10:52:40;6.43;;;1.15;;
64938;SDS011;51453;47.738;7.420;2024-03-23T10:55:11;3.88;;;1.17;;
64938;SDS011;51453;47.738;7.420;2024-03-23T10:57:42;4.97;;;1.17;;
64938;SDS011;51453;47.738;7.420;2024-03-23T11:00:19;4.80;;;1.10;;
64938;SDS011;51453;47.738;7.420;2024-03-23T11:02:47;3.38;;;0.93;;
64938;SDS011;51453;47.738;7.420;2024-03-23T11:07:51;3.53;;;1.38;;
64938;SDS011;51453;47.738;7.420;2024-03-23T11:10:24;6.50;;;1.58;;
64938;SDS011;51453;47.738;7.420;2024-03-23T11:12:56;6.40;;;1.50;;
64938;SDS011;51453;47.738;7.420;2024-03-23T11:15:22;4.65;;;1.20;;
64938;SDS011;51453;47.738;7.420;2024-03-23T11:18:01;5.10;;;1.40;;
64938;SDS011;51453;47.738;7.420;2024-03-23T11:20:31;5.05;;;1.60;;
64938;SDS011;51453;47.738;7.420;2024-03-23T11:22:57;6.10;;;1.42;;
64938;SDS011;51453;47.738;7.420;2024-03-23T11:25:23;6.43;;;1.38;;
64938;SDS011;51453;47.738;7.420;2024-03-23T11:27:53;7.93;;;1.65;;
64938;SDS011;51453;47.738;7.420;2024-03-23T11:32:57;6.40;;;1.30;;
64938;SDS011;51453;47.738;7.420;2024-03-23T11:38:13;13.77;;;2.08;;
64938;SDS011;51453;47.738;7.420;2024-03-23T11:40:46;8.40;;;2.13;;
64938;SDS011;51453;47.738;7.420;2024-03-23T11:43:14;9.52;;;1.88;;
64938;SDS011;51453;47.738;7.420;2024-03-23T11:48:15;8.43;;;2.15;;
64938;SDS011;51453;47.738;7.420;2024-03-23T11:50:46;6.65;;;2.03;;
64938;SDS011;51453;47.738;7.420;2024-03-23T11:58:21;10.80;;;2.25;;
64938;SDS011;51453;47.738;7.420;2024-03-23T12:00:51;10.63;;;2.73;;
64938;SDS011;51453;47.738;7.420;2024-03-23T12:03:34;10.82;;;2.92;;
64938;SDS011;51453;47.738;7.420;2024-03-23T12:06:02;7.28;;;1.90;;
64938;SDS011;51453;47.738;7.420;2024-03-23T12:08:29;9.27;;;2.17;;
64938;SDS011;51453;47.738;7.420;2024-03-23T12:11:04;12.15;;;2.58;;
64938;SDS011;51453;47.738;7.420;2024-03-23T12:13:32;7.20;;;1.67;;
64938;SDS011;51453;47.738;7.420;2024-03-23T12:18:40;9.50;;;2.50;;
64938;SDS011;51453;47.738;7.420;2024-03-23T12:21:07;8.93;;;2.25;;
64938;SDS011;51453;47.738;7.420;2024-03-23T12:23:33;16.77;;;3.58;;
64938;SDS011;51453;47.738;7.420;2024-03-23T12:25:59;13.07;;;2.20;;
64938;SDS011;51453;47.738;7.420;2024-03-23T12:28:25;9.68;;;1.98;;
64938;SDS011;51453;47.738;7.420;2024-03-23T12:30:51;6.95;;;2.25;;
64938;SDS011;51453;47.738;7.420;2024-03-23T12:33:18;10.30;;;1.85;;
64938;SDS011;51453;47.738;7.420;2024-03-23T12:35:44;7.45;;;1.92;;
64938;SDS011;51453;47.738;7.420;2024-03-23T12:38:09;7.75;;;1.90;;
64938;SDS011;51453;47.738;7.420;2024-03-23T12:40:35;11.98;;;2.03;;
64938;SDS011;51453;47.738;7.420;2024-03-23T12:43:00;9.50;;;2.08;;
64938;SDS011;51453;47.738;7.420;2024-03-23T12:45:26;5.53;;;1.40;;
64938;SDS011;51453;47.738;7.420;2024-03-23T12:47:52;6.53;;;1.58;;
64938;SDS011;51453;47.738;7.420;2024-03-23T12:50:20;5.28;;;1.20;;
64938;SDS011;51453;47.738;7.420;2024-03-23T12:52:46;7.35;;;1.25;;
64938;SDS011;51453;47.738;7.420;2024-03-23T12:55:12;7.68;;;1.27;;
64938;SDS011;51453;47.738;7.420;2024-03-23T12:57:38;6.53;;;1.20;;
64938;SDS011;51453;47.738;7.420;2024-03-23T13:00:03;7.53;;;1.13;;
64938;SDS011;51453;47.738;7.420;2024-03-23T13:02:30;6.85;;;1.17;;
64938;SDS011;51453;47.738;7.420;2024-03-23T13:04:55;6.45;;;1.00;;
64938;SDS011;51453;47.738;7.420;2024-03-23T13:07:22;5.25;;;1.05;;
64938;SDS011;51453;47.738;7.420;2024-03-23T13:09:51;5.20;;;0.90;;
64938;SDS011;51453;47.738;7.420;2024-03-23T13:12:18;6.35;;;0.90;;
64938;SDS011;51453;47.738;7.420;2024-03-23T13:14:47;6.05;;;1.40;;
64938;SDS011;51453;47.738;7.420;2024-03-23T13:17:13;8.15;;;1.10;;
64938;SDS011;51453;47.738;7.420;2024-03-23T13:19:39;6.05;;;0.85;;
64938;SDS011;51453;47.738;7.420;2024-03-23T13:22:05;4.00;;;1.10;;
64938;SDS011;51453;47.738;7.420;2024-03-23T13:24:31;4.68;;;0.90;;
64938;SDS011;51453;47.738;7.420;2024-03-23T13:26:57;6.13;;;0.70;;
64938;SDS011;51453;47.738;7.420;2024-03-23T13:29:23;8.07;;;1.20;;
64938;SDS011;51453;47.738;7.420;2024-03-23T13:31:49;7.70;;;0.93;;
64938;SDS011;51453;47.738;7.420;2024-03-23T13:34:16;6.03;;;0.85;;
64938;SDS011;51453;47.738;7.420;2024-03-23T13:36:43;6.93;;;1.10;;
64938;SDS011;51453;47.738;7.420;2024-03-23T13:39:09;4.15;;;1.00;;
64938;SDS011;51453;47.738;7.420;2024-03-23T13:44:05;5.45;;;0.80;;
64938;SDS011;51453;47.738;7.420;2024-03-23T13:46:35;3.08;;;0.73;;
64938;SDS011;51453;47.738;7.420;2024-03-23T13:49:01;3.42;;;0.70;;
64938;SDS011;51453;47.738;7.420;2024-03-23T13:51:27;4.80;;;0.75;;
64938;SDS011;51453;47.738;7.420;2024-03-23T13:53:53;5.28;;;0.90;;
64938;SDS011;51453;47.738;7.420;2024-03-23T13:56:20;11.60;;;1.25;;
64938;SDS011;51453;47.738;7.420;2024-03-23T13:58:46;4.25;;;1.00;;
64938;SDS011;51453;47.738;7.420;2024-03-23T14:01:12;8.05;;;0.90;;
64938;SDS011;51453;47.738;7.420;2024-03-23T14:03:42;4.88;;;1.27;;
64938;SDS011;51453;47.738;7.420;2024-03-23T14:06:08;2.50;;;0.60;;
64938;SDS011;51453;47.738;7.420;2024-03-23T14:08:35;2.92;;;0.70;;
64938;SDS011;51453;47.738;7.420;2024-03-23T14:11:04;13.85;;;1.48;;
64938;SDS011;51453;47.738;7.420;2024-03-23T14:13:30;4.53;;;1.00;;
64938;SDS011;51453;47.738;7.420;2024-03-23T14:15:56;3.80;;;0.77;;
64938;SDS011;51453;47.738;7.420;2024-03-23T14:18:22;7.72;;;1.13;;
64938;SDS011;51453;47.738;7.420;2024-03-23T14:20:48;4.38;;;1.00;;
64938;SDS011;51453;47.738;7.420;2024-03-23T14:23:14;5.07;;;0.88;;
64938;SDS011;51453;47.738;7.420;2024-03-23T14:25:40;3.58;;;0.80;;
64938;SDS011;51453;47.738;7.420;2024-03-23T14:28:06;2.88;;;0.90;;
64938;SDS011;51453;47.738;7.420;2024-03-23T14:30:38;5.60;;;0.50;;
64938;SDS011;51453;47.738;7.420;2024-03-23T14:33:04;3.03;;;0.52;;
64938;SDS011;51453;47.738;7.420;2024-03-23T14:35:30;3.03;;;0.50;;
64938;SDS011;51453;47.738;7.420;2024-03-23T14:37:57;4.20;;;0.93;;
64938;SDS011;51453;47.738;7.420;2024-03-23T14:40:23;2.70;;;1.00;;
64938;SDS011;51453;47.738;7.420;2024-03-23T14:42:52;4.38;;;0.73;;
64938;SDS011;51453;47.738;7.420;2024-03-23T14:45:18;1.52;;;0.60;;
64938;SDS011;51453;47.738;7.420;2024-03-23T14:47:44;5.15;;;0.80;;
64938;SDS011;51453;47.738;7.420;2024-03-23T14:50:10;3.30;;;0.77;;
64938;SDS011;51453;47.738;7.420;2024-03-23T14:52:40;4.45;;;0.80;;
64938;SDS011;51453;47.738;7.420;2024-03-23T14:55:12;8.52;;;1.20;;
64938;SDS011;51453;47.738;7.420;2024-03-23T14:57:38;5.95;;;1.00;;
64938;SDS011;51453;47.738;7.420;2024-03-23T15:00:08;3.33;;;0.70;;
64938;SDS011;51453;47.738;7.420;2024-03-23T15:02:36;4.63;;;0.68;;
64938;SDS011;51453;47.738;7.420;2024-03-23T15:05:02;4.25;;;0.73;;
64938;SDS011;51453;47.738;7.420;2024-03-23T15:07:29;8.77;;;1.42;;
64938;SDS011;51453;47.738;7.420;2024-03-23T15:09:55;6.15;;;1.08;;
64938;SDS011;51453;47.738;7.420;2024-03-23T15:12:21;10.18;;;1.20;;
64938;SDS011;51453;47.738;7.420;2024-03-23T15:14:47;9.98;;;1.63;;
64938;SDS011;51453;47.738;7.420;2024-03-23T15:17:13;4.50;;;1.10;;
64938;SDS011;51453;47.738;7.420;2024-03-23T15:19:39;9.75;;;1.10;;
64938;SDS011;51453;47.738;7.420;2024-03-23T15:22:05;7.28;;;0.93;;
64938;SDS011;51453;47.738;7.420;2024-03-23T15:24:30;4.05;;;0.80;;
64938;SDS011;51453;47.738;7.420;2024-03-23T15:26:56;6.70;;;1.15;;
64938;SDS011;51453;47.738;7.420;2024-03-23T15:29:22;5.95;;;0.80;;
64938;SDS011;51453;47.738;7.420;2024-03-23T15:31:48;3.38;;;0.88;;
64938;SDS011;51453;47.738;7.420;2024-03-23T15:34:17;5.38;;;0.80;;
64938;SDS011;51453;47.738;7.420;2024-03-23T15:36:49;5.78;;;0.77;;
64938;SDS011;51453;47.738;7.420;2024-03-23T15:39:17;3.42;;;0.93;;
64938;SDS011;51453;47.738;7.420;2024-03-23T15:41:44;2.78;;;0.70;;
64938;SDS011;51453;47.738;7.420;2024-03-23T15:44:10;4.43;;;0.70;;
64938;SDS011;51453;47.738;7.420;2024-03-23T15:46:36;2.83;;;0.68;;
64938;SDS011;51453;47.738;7.420;2024-03-23T15:49:01;2.53;;;0.47;;
64938;SDS011;51453;47.738;7.420;2024-03-23T15:51:27;2.42;;;0.50;;
64938;SDS011;51453;47.738;7.420;2024-03-23T15:53:57;3.53;;;0.60;;
64938;SDS011;51453;47.738;7.420;2024-03-23T15:56:26;2.50;;;0.60;;
64938;SDS011;51453;47.738;7.420;2024-03-23T15:58:54;3.88;;;0.85;;
64938;SDS011;51453;47.738;7.420;2024-03-23T16:01:19;1.40;;;0.40;;